createdAt,value
2023-03-29T00:02:59.270Z,6.80
2023-03-29T00:06:03.141Z,6.50
2023-03-29T00:09:06.331Z,6.05
2023-03-29T00:12:07.899Z,6.53
2023-03-29T00:15:09.679Z,6.43
2023-03-29T00:18:11.082Z,6.50
2023-03-29T00:21:12.506Z,5.82
2023-03-29T00:24:13.905Z,5.33
2023-03-29T00:27:16.403Z,4.93
2023-03-29T00:30:18.146Z,6.38
2023-03-29T00:33:20.552Z,6.22
2023-03-29T00:39:26.288Z,10.07
2023-03-29T00:42:27.795Z,6.10
2023-03-29T00:45:30.500Z,6.20
2023-03-29T00:48:32.899Z,6.03
2023-03-29T00:51:38.194Z,6.15
2023-03-29T00:54:44.876Z,6.53
2023-03-29T00:57:46.989Z,7.32
2023-03-29T01:00:57.834Z,7.78
2023-03-29T01:04:18.081Z,7.38
2023-03-29T01:07:23.280Z,6.07
2023-03-29T01:10:47.408Z,5.15
2023-03-29T01:14:10.106Z,6.72
2023-03-29T01:20:19.027Z,6.43
2023-03-29T01:23:51.049Z,6.28
2023-03-29T01:27:03.088Z,4.53
2023-03-29T01:30:12.694Z,6.07
2023-03-29T01:33:23.502Z,4.78
2023-03-29T01:36:31.156Z,5.00
2023-03-29T01:39:34.148Z,4.70
2023-03-29T01:42:35.665Z,4.95
2023-03-29T01:45:50.059Z,4.75
2023-03-29T01:48:56.726Z,5.55
2023-03-29T01:52:04.946Z,4.15
2023-03-29T01:55:21.603Z,5.95
2023-03-29T01:58:27.616Z,4.18
2023-03-29T02:01:38.215Z,5.20
2023-03-29T02:04:48.106Z,5.93
2023-03-29T02:07:51.400Z,7.75
2023-03-29T02:10:53.598Z,3.72
2023-03-29T02:13:56.938Z,6.70
2023-03-29T02:17:29.831Z,3.92
2023-03-29T02:20:39.304Z,7.90
2023-03-29T02:23:45.355Z,5.00
2023-03-29T02:26:48.594Z,5.40
2023-03-29T02:29:50.481Z,4.82
2023-03-29T02:33:03.865Z,5.97
2023-03-29T02:36:13.026Z,5.15
2023-03-29T02:39:16.232Z,5.95
2023-03-29T02:42:20.297Z,6.00
2023-03-29T02:45:23.421Z,5.30
2023-03-29T02:48:28.172Z,4.90
2023-03-29T02:51:33.978Z,5.72
2023-03-29T02:54:37.906Z,5.70
2023-03-29T02:57:40.851Z,4.38
2023-03-29T03:00:46.113Z,6.40
2023-03-29T03:03:48.022Z,5.25
2023-03-29T03:06:50.038Z,5.55
2023-03-29T03:09:51.889Z,4.63
2023-03-29T03:12:53.338Z,5.38
2023-03-29T03:15:55.092Z,4.78
2023-03-29T03:18:56.878Z,3.80
2023-03-29T03:21:59.588Z,4.60
2023-03-29T03:25:00.983Z,5.43
2023-03-29T03:28:02.615Z,4.67
2023-03-29T03:31:04.889Z,4.93
2023-03-29T03:34:26.188Z,5.65
2023-03-29T03:37:31.966Z,4.10
2023-03-29T03:40:33.453Z,5.03
2023-03-29T03:43:35.553Z,4.80
2023-03-29T03:46:37.273Z,4.70
2023-03-29T03:49:40.011Z,4.45
2023-03-29T03:52:41.675Z,4.45
2023-03-29T03:55:49.315Z,4.13
2023-03-29T03:58:56.929Z,4.82
2023-03-29T04:01:59.740Z,5.82
2023-03-29T04:05:03.338Z,4.55
2023-03-29T04:08:09.621Z,4.22
2023-03-29T04:11:29.578Z,4.65
2023-03-29T04:14:32.197Z,6.07
2023-03-29T04:17:41.655Z,6.78
2023-03-29T04:20:58.196Z,9.50
2023-03-29T04:24:01.119Z,6.60
2023-03-29T04:27:03.356Z,7.15
2023-03-29T04:30:05.626Z,5.00
2023-03-29T04:33:28.776Z,4.07
2023-03-29T04:36:34.533Z,5.25
2023-03-29T04:42:44.267Z,7.60
2023-03-29T04:45:45.782Z,10.70
2023-03-29T04:48:58.917Z,10.38
2023-03-29T04:52:24.417Z,8.45
2023-03-29T04:55:27.141Z,6.80
2023-03-29T04:58:36.238Z,9.57
2023-03-29T05:01:37.862Z,9.48
2023-03-29T05:04:39.408Z,7.65
2023-03-29T05:07:47.882Z,6.30
2023-03-29T05:10:54.386Z,5.78
2023-03-29T05:14:00.619Z,7.05
2023-03-29T05:17:06.324Z,8.20
2023-03-29T05:20:13.070Z,7.55
2023-03-29T05:23:17.475Z,7.80
2023-03-29T05:26:37.455Z,8.80
2023-03-29T05:29:39.297Z,8.32
2023-03-29T05:32:56.518Z,8.63
2023-03-29T05:36:02.225Z,8.38
2023-03-29T05:39:04.739Z,8.73
2023-03-29T05:42:07.106Z,7.65
2023-03-29T05:45:22.807Z,8.48
2023-03-29T05:48:25.693Z,9.52
2023-03-29T05:54:30.786Z,10.82
2023-03-29T05:57:36.441Z,10.32
2023-03-29T06:00:39.547Z,14.68
2023-03-29T06:03:58.728Z,13.10
2023-03-29T06:07:08.366Z,8.93
2023-03-29T06:10:10.667Z,9.32
2023-03-29T06:13:14.811Z,10.13
2023-03-29T06:16:16.447Z,8.07
2023-03-29T06:19:18.766Z,10.00
2023-03-29T06:22:21.138Z,10.57
2023-03-29T06:25:22.767Z,9.10
2023-03-29T06:28:25.840Z,8.98
2023-03-29T06:31:27.747Z,9.52
2023-03-29T06:34:31.017Z,10.45
2023-03-29T06:37:55.902Z,9.55
2023-03-29T06:41:17.838Z,8.52
2023-03-29T06:44:46.791Z,10.48
2023-03-29T06:47:54.424Z,8.52
2023-03-29T06:54:01.030Z,11.55
2023-03-29T06:57:05.650Z,10.40
2023-03-29T07:00:19.242Z,9.23
2023-03-29T07:03:50.224Z,8.77
2023-03-29T07:07:05.863Z,8.20
2023-03-29T07:10:09.368Z,7.63
2023-03-29T07:13:30.468Z,10.48
2023-03-29T07:16:37.085Z,8.23
2023-03-29T07:19:59.488Z,7.60
2023-03-29T07:23:15.427Z,7.55
2023-03-29T07:26:29.278Z,8.80
2023-03-29T07:29:32.710Z,8.45
2023-03-29T07:32:34.315Z,7.75
2023-03-29T07:35:47.847Z,7.03
2023-03-29T07:38:49.908Z,8.77
2023-03-29T07:41:58.008Z,8.55
2023-03-29T07:45:00.023Z,9.48
2023-03-29T07:48:08.385Z,10.23
2023-03-29T07:51:23.287Z,7.88
2023-03-29T07:54:35.656Z,8.38
2023-03-29T07:57:53.674Z,7.40
2023-03-29T08:04:19.640Z,7.60
2023-03-29T08:07:41.338Z,7.07
2023-03-29T08:10:52.947Z,8.68
2023-03-29T08:14:17.035Z,8.25
2023-03-29T08:17:41.770Z,5.95
2023-03-29T08:23:45.128Z,7.25
2023-03-29T08:26:53.864Z,8.25
2023-03-29T08:29:55.744Z,10.55
2023-03-29T08:32:58.023Z,7.65
2023-03-29T08:39:05.905Z,8.60
2023-03-29T08:42:38.395Z,7.60
2023-03-29T08:45:44.140Z,12.32
2023-03-29T08:48:52.637Z,7.88
2023-03-29T08:52:02.380Z,6.53
2023-03-29T08:55:13.419Z,7.28
2023-03-29T08:58:36.955Z,6.82
2023-03-29T09:01:39.048Z,6.38
2023-03-29T09:04:42.455Z,5.00
2023-03-29T09:08:09.210Z,4.72
2023-03-29T09:11:23.085Z,6.28
2023-03-29T09:14:36.274Z,5.65
2023-03-29T09:18:03.768Z,7.60
2023-03-29T09:21:16.925Z,5.28
2023-03-29T09:24:38.283Z,5.85
2023-03-29T09:28:18.337Z,5.72
2023-03-29T09:31:34.405Z,5.82
2023-03-29T09:34:43.373Z,7.00
2023-03-29T09:37:53.779Z,6.40
2023-03-29T09:41:04.514Z,5.63
2023-03-29T09:47:45.069Z,7.65
2023-03-29T09:50:51.256Z,5.70
2023-03-29T09:53:56.551Z,7.00
2023-03-29T09:57:18.457Z,9.00
2023-03-29T10:00:20.677Z,8.75
2023-03-29T10:03:25.825Z,5.18
2023-03-29T10:06:36.670Z,10.88
2023-03-29T10:09:38.231Z,7.03
2023-03-29T10:12:54.319Z,5.25
2023-03-29T10:16:07.968Z,6.95
2023-03-29T10:19:23.307Z,5.03
2023-03-29T10:22:27.679Z,5.75
2023-03-29T10:25:31.329Z,6.38
2023-03-29T10:28:34.884Z,5.47
2023-03-29T10:31:41.548Z,8.07
2023-03-29T10:34:45.664Z,5.15
2023-03-29T10:37:53.022Z,6.35
2023-03-29T10:41:02.714Z,5.72
2023-03-29T10:44:06.604Z,4.18
2023-03-29T10:47:20.185Z,6.93
2023-03-29T10:50:21.685Z,5.25
2023-03-29T10:53:28.053Z,7.18
2023-03-29T10:56:40.013Z,5.97
2023-03-29T11:00:00.488Z,5.85
2023-03-29T11:03:08.655Z,6.05
2023-03-29T11:06:19.807Z,6.35
2023-03-29T11:09:49.780Z,4.88
2023-03-29T11:13:13.257Z,4.90
2023-03-29T11:16:25.402Z,6.00
2023-03-29T11:20:14.573Z,4.20
2023-03-29T11:23:47.021Z,4.15
2023-03-29T11:27:07.097Z,5.00
2023-03-29T11:30:14.657Z,5.82
2023-03-29T11:33:30.136Z,4.70
2023-03-29T11:36:38.812Z,4.15
2023-03-29T11:40:05.594Z,4.43
2023-03-29T11:43:23.173Z,4.95
2023-03-29T11:46:39.398Z,8.80
2023-03-29T11:49:52.979Z,5.57
2023-03-29T11:53:12.594Z,7.63
2023-03-29T11:56:23.735Z,4.43
2023-03-29T11:59:32.756Z,9.13
2023-03-29T12:03:10.960Z,4.32
2023-03-29T12:06:24.920Z,8.48
2023-03-29T12:09:41.270Z,5.65
2023-03-29T12:12:55.176Z,4.57
2023-03-29T12:16:14.703Z,4.63
2023-03-29T12:19:23.098Z,4.97
2023-03-29T12:22:24.584Z,3.67
2023-03-29T12:25:34.516Z,3.78
2023-03-29T12:28:48.653Z,4.60
2023-03-29T12:31:59.613Z,3.67
2023-03-29T12:35:40.169Z,5.47
2023-03-29T12:39:17.066Z,5.63
2023-03-29T12:42:53.960Z,5.75
2023-03-29T12:46:19.329Z,4.13
2023-03-29T12:49:29.409Z,6.03
2023-03-29T12:52:35.833Z,4.75
2023-03-29T12:55:43.896Z,5.18
2023-03-29T12:58:45.353Z,6.13
2023-03-29T13:02:05.370Z,5.50
2023-03-29T13:05:31.632Z,4.55
2023-03-29T13:08:35.576Z,4.80
2023-03-29T13:11:41.296Z,7.82
2023-03-29T13:14:46.310Z,7.80
2023-03-29T13:18:10.949Z,5.70
2023-03-29T13:21:22.810Z,7.60
2023-03-29T13:24:30.158Z,11.48
2023-03-29T13:27:59.682Z,4.18
2023-03-29T13:31:13.032Z,8.15
2023-03-29T13:34:59.006Z,5.78
2023-03-29T13:38:19.555Z,5.63
2023-03-29T13:41:40.265Z,3.92
2023-03-29T13:44:45.981Z,4.40
2023-03-29T13:47:58.793Z,4.07
2023-03-29T13:51:17.753Z,6.53
2023-03-29T13:54:32.319Z,4.55
2023-03-29T13:57:40.741Z,7.95
2023-03-29T14:00:49.341Z,8.85
2023-03-29T14:03:52.598Z,6.72
2023-03-29T14:06:56.734Z,6.00
2023-03-29T14:09:59.101Z,9.00
2023-03-29T14:13:03.864Z,6.65
2023-03-29T14:16:11.596Z,5.50
2023-03-29T14:19:18.280Z,3.35
2023-03-29T14:22:21.307Z,7.03
2023-03-29T14:25:22.959Z,4.45
2023-03-29T14:28:27.776Z,5.85
2023-03-29T14:31:38.618Z,11.15
2023-03-29T14:34:40.500Z,4.80
2023-03-29T14:37:45.238Z,4.03
2023-03-29T14:40:46.710Z,10.45
2023-03-29T14:43:48.926Z,12.57
2023-03-29T14:46:50.760Z,7.22
2023-03-29T14:49:54.360Z,5.93
2023-03-29T14:52:57.896Z,7.22
2023-03-29T14:56:00.332Z,5.35
2023-03-29T14:59:04.506Z,4.00
2023-03-29T15:02:23.028Z,6.75
2023-03-29T15:05:33.274Z,5.68
2023-03-29T15:08:45.825Z,5.95
2023-03-29T15:11:58.330Z,6.05
2023-03-29T15:15:01.413Z,4.68
2023-03-29T15:18:10.467Z,5.57
2023-03-29T15:21:14.596Z,7.38
2023-03-29T15:24:21.174Z,6.53
2023-03-29T15:27:22.850Z,5.63
2023-03-29T15:30:39.561Z,7.55
2023-03-29T15:33:41.978Z,5.35
2023-03-29T15:36:45.551Z,4.68
2023-03-29T15:39:47.062Z,5.47
2023-03-29T15:42:49.155Z,6.00
2023-03-29T15:48:52.031Z,7.13
2023-03-29T15:51:54.177Z,9.10
2023-03-29T15:58:00.489Z,6.77
2023-03-29T16:01:19.188Z,7.82
2023-03-29T16:04:22.114Z,7.13
2023-03-29T16:07:23.626Z,6.35
2023-03-29T16:10:25.250Z,7.90
2023-03-29T16:13:26.742Z,8.63
2023-03-29T16:16:28.534Z,6.55
2023-03-29T16:19:31.063Z,6.38
2023-03-29T16:22:32.501Z,7.35
2023-03-29T16:25:34.259Z,10.43
2023-03-29T16:28:36.973Z,6.68
2023-03-29T16:31:39.177Z,5.68
2023-03-29T16:34:41.404Z,5.35
2023-03-29T16:37:42.946Z,12.45
2023-03-29T16:40:45.138Z,12.27
2023-03-29T16:43:46.837Z,7.50
2023-03-29T16:46:48.293Z,6.47
2023-03-29T16:49:49.722Z,6.97
2023-03-29T16:52:52.445Z,9.43
2023-03-29T16:55:54.399Z,8.98
2023-03-29T16:58:55.813Z,7.82
2023-03-29T17:01:57.270Z,8.23
2023-03-29T17:04:58.860Z,6.80
2023-03-29T17:08:00.416Z,8.35
2023-03-29T17:11:03.075Z,9.13
2023-03-29T17:14:04.625Z,6.53
2023-03-29T17:17:06.308Z,13.57
2023-03-29T17:20:10.326Z,12.25
2023-03-29T17:23:12.249Z,9.93
2023-03-29T17:26:14.077Z,11.27
2023-03-29T17:29:15.592Z,16.13
2023-03-29T17:32:17.095Z,10.90
2023-03-29T17:35:18.538Z,9.65
2023-03-29T17:38:20.048Z,11.40
2023-03-29T17:41:21.537Z,8.00
2023-03-29T17:44:23.128Z,10.18
2023-03-29T17:47:24.656Z,7.72
2023-03-29T17:50:26.268Z,14.18
2023-03-29T17:53:27.835Z,10.75
2023-03-29T17:56:29.424Z,8.43
2023-03-29T17:59:31.125Z,9.32
2023-03-29T18:02:32.697Z,11.23
2023-03-29T18:05:34.976Z,7.13
2023-03-29T18:08:36.388Z,7.80
2023-03-29T18:11:38.430Z,7.97
2023-03-29T18:14:39.923Z,11.00
2023-03-29T18:17:41.457Z,7.80
2023-03-29T18:20:45.292Z,15.52
2023-03-29T18:23:48.462Z,6.95
2023-03-29T18:26:49.866Z,7.03
2023-03-29T18:29:51.347Z,9.07
2023-03-29T18:32:53.123Z,9.63
2023-03-29T18:35:54.680Z,6.82
2023-03-29T18:39:02.321Z,7.28
2023-03-29T18:42:03.812Z,11.40
2023-03-29T18:45:05.723Z,7.63
2023-03-29T18:48:07.900Z,11.20
2023-03-29T18:51:10.948Z,9.07
2023-03-29T18:54:12.377Z,8.00
2023-03-29T18:57:13.903Z,10.13
2023-03-29T19:00:15.693Z,7.00
2023-03-29T19:03:17.568Z,10.07
2023-03-29T19:06:19.352Z,11.05
2023-03-29T19:09:20.963Z,11.15
2023-03-29T19:12:22.623Z,8.70
2023-03-29T19:15:24.299Z,11.15
2023-03-29T19:18:25.913Z,11.10
2023-03-29T19:21:28.850Z,11.38
2023-03-29T19:24:30.416Z,14.82
2023-03-29T19:27:33.398Z,12.98
2023-03-29T19:30:35.864Z,10.82
2023-03-29T19:33:37.363Z,11.98
2023-03-29T19:36:38.869Z,15.68
2023-03-29T19:39:41.393Z,7.88
2023-03-29T19:42:42.911Z,12.20
2023-03-29T19:45:45.969Z,7.75
2023-03-29T19:48:47.746Z,9.88
2023-03-29T19:51:49.178Z,9.20
2023-03-29T19:54:51.197Z,12.65
2023-03-29T19:57:52.633Z,11.10
2023-03-29T20:00:57.932Z,8.57
2023-03-29T20:03:59.606Z,7.13
2023-03-29T20:07:01.090Z,9.25
2023-03-29T20:10:03.002Z,6.85
2023-03-29T20:13:06.479Z,9.07
2023-03-29T20:16:10.896Z,7.35
2023-03-29T20:19:14.034Z,10.40
2023-03-29T20:22:15.622Z,6.03
2023-03-29T20:25:17.104Z,8.48
2023-03-29T20:28:19.643Z,12.77
2023-03-29T20:31:21.239Z,10.23
2023-03-29T20:34:22.705Z,11.55
2023-03-29T20:37:25.764Z,8.68
2023-03-29T20:40:28.721Z,11.15
2023-03-29T20:43:37.604Z,13.68
2023-03-29T20:46:54.027Z,9.35
2023-03-29T20:49:55.462Z,11.52
2023-03-29T20:52:57.159Z,11.57
2023-03-29T20:55:58.851Z,12.93
2023-03-29T20:59:00.901Z,13.68
2023-03-29T21:02:02.409Z,18.40
2023-03-29T21:05:04.061Z,18.40
2023-03-29T21:08:05.740Z,20.30
2023-03-29T21:11:08.074Z,26.25
2023-03-29T21:14:09.589Z,19.63
2023-03-29T21:17:11.021Z,17.77
2023-03-29T21:20:13.146Z,14.98
2023-03-29T21:26:15.981Z,15.90
2023-03-29T21:29:17.429Z,21.25
2023-03-29T21:32:19.004Z,13.73
2023-03-29T21:35:20.653Z,17.92
2023-03-29T21:38:22.101Z,16.33
2023-03-29T21:41:23.520Z,19.60
2023-03-29T21:44:26.139Z,17.35
2023-03-29T21:47:28.111Z,14.32
2023-03-29T21:50:31.985Z,20.42
2023-03-29T21:53:35.157Z,13.70
2023-03-29T21:56:36.960Z,18.05
2023-03-29T21:59:38.414Z,13.90
2023-03-29T22:02:40.416Z,26.58
2023-03-29T22:05:42.105Z,19.50
2023-03-29T22:08:43.582Z,20.05
2023-03-29T22:11:44.990Z,20.42
2023-03-29T22:14:46.537Z,12.85
2023-03-29T22:17:48.207Z,20.15
2023-03-29T22:20:49.684Z,15.98
2023-03-29T22:23:54.465Z,15.63
2023-03-29T22:26:56.020Z,10.60
2023-03-29T22:29:58.560Z,13.73
2023-03-29T22:33:00.021Z,14.43
2023-03-29T22:36:02.220Z,14.73
2023-03-29T22:39:04.327Z,15.13
2023-03-29T22:45:08.146Z,16.87
2023-03-29T22:51:11.424Z,18.25
2023-03-29T22:54:12.899Z,12.43
2023-03-29T22:57:14.382Z,17.02
2023-03-29T23:00:15.984Z,16.40
2023-03-29T23:03:17.758Z,21.10
2023-03-29T23:06:19.185Z,14.13
2023-03-29T23:09:20.969Z,13.32
2023-03-29T23:12:24.046Z,13.60
2023-03-29T23:15:27.156Z,16.50
2023-03-29T23:18:32.166Z,20.20
2023-03-29T23:21:33.572Z,16.55
2023-03-29T23:24:34.994Z,14.35
2023-03-29T23:27:36.398Z,16.25
2023-03-29T23:30:38.575Z,21.40
2023-03-29T23:33:42.426Z,25.15
2023-03-29T23:36:43.892Z,18.58
2023-03-29T23:39:45.743Z,12.52
2023-03-29T23:42:48.280Z,22.30
2023-03-29T23:45:55.674Z,20.77
2023-03-29T23:48:57.080Z,13.85
2023-03-29T23:52:00.162Z,21.23
2023-03-29T23:55:01.719Z,15.95
2023-03-29T23:58:03.174Z,19.33
